sensor_id;sensor_type;location;lat;lon;timestamp;pressure;altitude;pressure_sealevel;temperature;humidity
10145;BME280;5113;41.822;23.564;2022-08-11T00:02:35;-11399.75;;;16.81;100.00
10145;BME280;5113;41.822;23.564;2022-08-11T00:05:45;-11398.06;;;16.75;100.00
10145;BME280;5113;41.822;23.564;2022-08-11T00:08:54;-11399.63;;;16.80;100.00
10145;BME280;5113;41.822;23.564;2022-08-11T00:12:02;-11393.84;;;16.60;100.00
10145;BME280;5113;41.822;23.564;2022-08-11T00:15:10;-11381.31;;;16.14;100.00
10145;BME280;5113;41.822;23.564;2022-08-11T00:18:17;-11375.81;;;15.95;100.00
10145;BME280;5113;41.822;23.564;2022-08-11T00:21:26;-11370.03;;;15.74;100.00
10145;BME280;5113;41.822;23.564;2022-08-11T00:24:55;-11391.88;;;16.52;100.00
10145;BME280;5113;41.822;23.564;2022-08-11T00:28:27;-11393.97;;;16.60;100.00
10145;BME280;5113;41.822;23.564;2022-08-11T00:31:35;-11400.03;;;16.82;100.00
10145;BME280;5113;41.822;23.564;2022-08-11T00:34:43;-11401.72;;;16.88;100.00
10145;BME280;5113;41.822;23.564;2022-08-11T00:37:53;-11399.47;;;16.80;100.00
10145;BME280;5113;41.822;23.564;2022-08-11T00:41:12;-11393.28;;;16.58;100.00
10145;BME280;5113;41.822;23.564;2022-08-11T00:44:31;-11398.78;;;16.77;100.00
10145;BME280;5113;41.822;23.564;2022-08-11T00:47:52;-11399.19;;;16.79;100.00
10145;BME280;5113;41.822;23.564;2022-08-11T00:51:10;-11396.09;;;16.68;100.00
10145;BME280;5113;41.822;23.564;2022-08-11T00:54:38;-11377.22;;;16.00;100.00
10145;BME280;5113;41.822;23.564;2022-08-11T00:58:26;-11367.22;;;15.64;100.00
10145;BME280;5113;41.822;23.564;2022-08-11T01:01:56;-11361.16;;;15.42;100.00
10145;BME280;5113;41.822;23.564;2022-08-11T01:05:22;-11358.63;;;15.33;100.00
10145;BME280;5113;41.822;23.564;2022-08-11T01:12:44;-11349.59;;;15.00;100.00
10145;BME280;5113;41.822;23.564;2022-08-11T01:16:12;-11356.66;;;15.26;100.00
10145;BME280;5113;41.822;23.564;2022-08-11T01:19:45;-11360.44;;;15.39;100.00
10145;BME280;5113;41.822;23.564;2022-08-11T01:23:53;-11374.25;;;15.89;100.00
10145;BME280;5113;41.822;23.564;2022-08-11T01:34:49;-11362.56;;;15.47;100.00
10145;BME280;5113;41.822;23.564;2022-08-11T01:38:46;-11358.91;;;15.34;100.00
10145;BME280;5113;41.822;23.564;2022-08-11T01:46:01;-11377.91;;;16.02;100.00
10145;BME280;5113;41.822;23.564;2022-08-11T01:49:16;-11366.38;;;15.61;100.00
10145;BME280;5113;41.822;23.564;2022-08-11T01:53:02;-11372.56;;;15.83;100.00
10145;BME280;5113;41.822;23.564;2022-08-11T01:56:24;-11377.50;;;16.01;100.00
10145;BME280;5113;41.822;23.564;2022-08-11T01:59:36;-11371.44;;;15.79;100.00
10145;BME280;5113;41.822;23.564;2022-08-11T02:02:58;-11379.75;;;16.09;100.00
10145;BME280;5113;41.822;23.564;2022-08-11T02:06:13;-11378.19;;;16.03;100.00
10145;BME280;5113;41.822;23.564;2022-08-11T02:09:54;-11381.72;;;16.16;100.00
10145;BME280;5113;41.822;23.564;2022-08-11T02:13:13;-11374.97;;;15.92;100.00
10145;BME280;5113;41.822;23.564;2022-08-11T02:16:37;-11373.00;;;15.84;100.00
10145;BME280;5113;41.822;23.564;2022-08-11T02:19:54;-11376.78;;;15.98;100.00
10145;BME280;5113;41.822;23.564;2022-08-11T02:23:26;-11389.63;;;16.44;100.00
10145;BME280;5113;41.822;23.564;2022-08-11T02:27:15;-11371.56;;;15.79;100.00
10145;BME280;5113;41.822;23.564;2022-08-11T02:30:24;-11383.41;;;16.22;100.00
10145;BME280;5113;41.822;23.564;2022-08-11T02:33:37;-11393.13;;;16.57;100.00
10145;BME280;5113;41.822;23.564;2022-08-11T02:36:54;-11382.44;;;16.18;100.00
10145;BME280;5113;41.822;23.564;2022-08-11T02:40:14;-11390.47;;;16.47;100.00
10145;BME280;5113;41.822;23.564;2022-08-11T02:43:28;-11383.69;;;16.23;100.00
10145;BME280;5113;41.822;23.564;2022-08-11T02:46:48;-11371.56;;;15.79;100.00
10145;BME280;5113;41.822;23.564;2022-08-11T02:50:04;-11384.97;;;16.28;100.00
10145;BME280;5113;41.822;23.564;2022-08-11T02:53:16;-11387.91;;;16.38;100.00
10145;BME280;5113;41.822;23.564;2022-08-11T02:56:39;-11373.00;;;15.84;100.00
10145;BME280;5113;41.822;23.564;2022-08-11T02:59:52;-11360.59;;;15.40;100.00
10145;BME280;5113;41.822;23.564;2022-08-11T03:03:12;-11365.09;;;15.56;100.00
10145;BME280;5113;41.822;23.564;2022-08-11T03:06:30;-11374.53;;;15.90;100.00
10145;BME280;5113;41.822;23.564;2022-08-11T03:09:44;-11377.22;;;16.00;100.00
10145;BME280;5113;41.822;23.564;2022-08-11T03:13:00;-11379.03;;;16.06;100.00
10145;BME280;5113;41.822;23.564;2022-08-11T03:16:39;-11369.59;;;15.72;100.00
10145;BME280;5113;41.822;23.564;2022-08-11T03:20:02;-11366.09;;;15.60;100.00
10145;BME280;5113;41.822;23.564;2022-08-11T03:23:17;-11361.72;;;15.44;100.00
10145;BME280;5113;41.822;23.564;2022-08-11T03:26:37;-11375.53;;;15.94;100.00
10145;BME280;5113;41.822;23.564;2022-08-11T03:30:02;-11364.25;;;15.53;100.00
10145;BME280;5113;41.822;23.564;2022-08-11T03:33:20;-11365.38;;;15.57;100.00
10145;BME280;5113;41.822;23.564;2022-08-11T03:41:01;-11332.56;;;14.39;100.00
10145;BME280;5113;41.822;23.564;2022-08-11T03:45:02;-11347.91;;;14.94;100.00
10145;BME280;5113;41.822;23.564;2022-08-11T03:48:19;-11344.81;;;14.83;100.00
10145;BME280;5113;41.822;23.564;2022-08-11T03:51:31;-11340.59;;;14.68;100.00
10145;BME280;5113;41.822;23.564;2022-08-11T03:55:07;-11357.22;;;15.28;100.00
10145;BME280;5113;41.822;23.564;2022-08-11T03:58:31;-11370.03;;;15.74;100.00
10145;BME280;5113;41.822;23.564;2022-08-11T04:02:18;-11372.16;;;15.81;100.00
10145;BME280;5113;41.822;23.564;2022-08-11T04:05:59;-11360.03;;;15.38;100.00
10145;BME280;5113;41.822;23.564;2022-08-11T04:13:48;-11340.72;;;14.68;100.00
10145;BME280;5113;41.822;23.564;2022-08-11T04:17:21;-11342.84;;;14.76;100.00
10145;BME280;5113;41.822;23.564;2022-08-11T04:21:01;-11341.16;;;14.70;100.00
10145;BME280;5113;41.822;23.564;2022-08-11T04:28:23;-11373.41;;;15.86;100.00
10145;BME280;5113;41.822;23.564;2022-08-11T04:32:02;-11374.13;;;15.89;100.00
10145;BME280;5113;41.822;23.564;2022-08-11T04:35:22;-11383.13;;;16.21;100.00
10145;BME280;5113;41.822;23.564;2022-08-11T04:39:03;-11382.00;;;16.17;100.00
10145;BME280;5113;41.822;23.564;2022-08-11T04:46:52;-11398.06;;;16.75;100.00
10145;BME280;5113;41.822;23.564;2022-08-11T04:50:21;-11384.25;;;16.25;100.00
10145;BME280;5113;41.822;23.564;2022-08-11T04:54:23;-11373.13;;;15.85;100.00
10145;BME280;5113;41.822;23.564;2022-08-11T04:57:56;-11392.44;;;16.55;100.00
10145;BME280;5113;41.822;23.564;2022-08-11T05:01:29;-11381.44;;;16.15;100.00
10145;BME280;5113;41.822;23.564;2022-08-11T05:04:55;-11396.25;;;16.68;100.00
10145;BME280;5113;41.822;23.564;2022-08-11T05:08:53;-11404.13;;;16.97;100.00
10145;BME280;5113;41.822;23.564;2022-08-11T05:12:29;-11417.50;;;17.45;100.00
10145;BME280;5113;41.822;23.564;2022-08-11T05:15:44;-11424.00;;;17.68;100.00
10145;BME280;5113;41.822;23.564;2022-08-11T05:19:14;-11422.31;;;17.62;100.00
10145;BME280;5113;41.822;23.564;2022-08-11T05:22:43;-11426.81;;;17.78;100.00
10145;BME280;5113;41.822;23.564;2022-08-11T05:26:14;-11443.19;;;18.37;100.00
10145;BME280;5113;41.822;23.564;2022-08-11T05:30:00;-11430.34;;;17.91;100.00
10145;BME280;5113;41.822;23.564;2022-08-11T05:33:34;-11443.75;;;18.39;100.00
10145;BME280;5113;41.822;23.564;2022-08-11T05:37:04;-11449.09;;;18.59;100.00
10145;BME280;5113;41.822;23.564;2022-08-11T05:40:31;-11456.84;;;18.87;100.00
10145;BME280;5113;41.822;23.564;2022-08-11T05:44:04;-11449.94;;;18.62;100.00
10145;BME280;5113;41.822;23.564;2022-08-11T05:47:30;-11462.63;;;19.07;100.00
10145;BME280;5113;41.822;23.564;2022-08-11T05:50:58;-11474.47;;;19.50;98.75
10145;BME280;5113;41.822;23.564;2022-08-11T05:54:33;-11485.19;;;19.89;98.96
10145;BME280;5113;41.822;23.564;2022-08-11T05:58:00;-11471.37;;;19.39;99.91
10145;BME280;5113;41.822;23.564;2022-08-11T06:01:08;-11494.50;;;20.22;93.00
10145;BME280;5113;41.822;23.564;2022-08-11T06:04:19;-11500.84;;;20.45;92.16
10145;BME280;5113;41.822;23.564;2022-08-11T06:07:29;-11503.41;;;20.54;90.59
10145;BME280;5113;41.822;23.564;2022-08-11T06:10:59;-11501.84;;;20.49;90.14
10145;BME280;5113;41.822;23.564;2022-08-11T06:14:06;-11487.75;;;19.98;94.63
10145;BME280;5113;41.822;23.564;2022-08-11T06:17:21;-11500.72;;;20.44;93.90
10145;BME280;5113;41.822;23.564;2022-08-11T06:20:30;-11494.66;;;20.23;94.95
10145;BME280;5113;41.822;23.564;2022-08-11T06:23:41;-11492.81;;;20.16;93.21
10145;BME280;5113;41.822;23.564;2022-08-11T06:26:50;-11524.97;;;21.32;87.73
10145;BME280;5113;41.822;23.564;2022-08-11T06:30:16;-11523.84;;;21.28;85.92
10145;BME280;5113;41.822;23.564;2022-08-11T06:33:34;-11520.59;;;21.16;87.07
10145;BME280;5113;41.822;23.564;2022-08-11T06:36:50;-11544.72;;;22.03;81.90
10145;BME280;5113;41.822;23.564;2022-08-11T06:40:06;-11525.97;;;21.35;83.28
10145;BME280;5113;41.822;23.564;2022-08-11T06:43:17;-11542.19;;;21.94;80.68
10145;BME280;5113;41.822;23.564;2022-08-11T06:46:29;-11545.88;;;22.07;80.37
10145;BME280;5113;41.822;23.564;2022-08-11T06:49:44;-11565.06;;;22.76;80.72
10145;BME280;5113;41.822;23.564;2022-08-11T06:53:10;-11566.75;;;22.82;75.23
10145;BME280;5113;41.822;23.564;2022-08-11T06:56:23;-11565.06;;;22.76;73.97
10145;BME280;5113;41.822;23.564;2022-08-11T06:59:47;-11568.03;;;22.87;73.02
10145;BME280;5113;41.822;23.564;2022-08-11T07:03:12;-11574.38;;;23.10;72.08
10145;BME280;5113;41.822;23.564;2022-08-11T07:06:38;-11566.19;;;22.80;72.37
10145;BME280;5113;41.822;23.564;2022-08-11T07:10:25;-11573.94;;;23.08;68.11
10145;BME280;5113;41.822;23.564;2022-08-11T07:13:53;-11578.59;;;23.25;66.84
10145;BME280;5113;41.822;23.564;2022-08-11T07:17:23;-11575.91;;;23.15;67.24
10145;BME280;5113;41.822;23.564;2022-08-11T07:20:30;-11597.81;;;23.94;67.80
10145;BME280;5113;41.822;23.564;2022-08-11T07:23:57;-11597.09;;;23.91;64.22
10145;BME280;5113;41.822;23.564;2022-08-11T07:27:26;-11598.66;;;23.97;63.62
10145;BME280;5113;41.822;23.564;2022-08-11T07:30:53;-11588.78;;;23.61;62.95
10145;BME280;5113;41.822;23.564;2022-08-11T07:34:15;-11597.22;;;23.92;60.74
10145;BME280;5113;41.822;23.564;2022-08-11T07:37:25;-11590.75;;;23.68;59.79
10145;BME280;5113;41.822;23.564;2022-08-11T07:40:35;-11596.25;;;23.88;59.14
10145;BME280;5113;41.822;23.564;2022-08-11T07:43:45;-11601.47;;;24.07;59.83
10145;BME280;5113;41.822;23.564;2022-08-11T07:46:54;-11617.84;;;24.66;57.57
10145;BME280;5113;41.822;23.564;2022-08-11T07:50:19;-11624.34;;;24.89;56.09
10145;BME280;5113;41.822;23.564;2022-08-11T07:53:44;-11613.75;;;24.51;56.68
10145;BME280;5113;41.822;23.564;2022-08-11T07:57:10;-11627.72;;;25.01;55.38
10145;BME280;5113;41.822;23.564;2022-08-11T08:00:56;-11631.53;;;25.15;53.29
10145;BME280;5113;41.822;23.564;2022-08-11T08:04:26;-11639.03;;;25.42;52.17
10145;BME280;5113;41.822;23.564;2022-08-11T08:07:51;-11642.13;;;25.53;52.32
10145;BME280;5113;41.822;23.564;2022-08-11T08:11:16;-11645.66;;;25.66;51.73
10145;BME280;5113;41.822;23.564;2022-08-11T08:14:43;-11651.31;;;25.86;51.20
10145;BME280;5113;41.822;23.564;2022-08-11T08:18:08;-11628.00;;;25.02;53.14
10145;BME280;5113;41.822;23.564;2022-08-11T08:21:30;-11639.03;;;25.42;53.43
10145;BME280;5113;41.822;23.564;2022-08-11T08:24:37;-11649.75;;;25.81;51.23
10145;BME280;5113;41.822;23.564;2022-08-11T08:31:10;-11677.72;;;26.81;49.35
10145;BME280;5113;41.822;23.564;2022-08-11T08:34:18;-11666.16;;;26.40;51.25
10145;BME280;5113;41.822;23.564;2022-08-11T08:37:25;-11667.84;;;26.46;49.11
10145;BME280;5113;41.822;23.564;2022-08-11T08:40:52;-11679.13;;;26.86;47.67
10145;BME280;5113;41.822;23.564;2022-08-11T08:44:04;-11655.97;;;26.03;48.16
10145;BME280;5113;41.822;23.564;2022-08-11T08:47:35;-11681.97;;;26.96;46.59
10145;BME280;5113;41.822;23.564;2022-08-11T08:50:51;-11691.97;;;27.33;46.45
10145;BME280;5113;41.822;23.564;2022-08-11T08:54:20;-11692.41;;;27.34;47.33
10145;BME280;5113;41.822;23.564;2022-08-11T08:57:27;-11695.78;;;27.46;46.36
10145;BME280;5113;41.822;23.564;2022-08-11T09:00:44;-11673.19;;;26.65;46.99
10145;BME280;5113;41.822;23.564;2022-08-11T09:03:51;-11679.13;;;26.86;46.93
10145;BME280;5113;41.822;23.564;2022-08-11T09:07:15;-11685.63;;;27.10;46.13
10145;BME280;5113;41.822;23.564;2022-08-11T09:10:22;-11677.72;;;26.81;46.28
10145;BME280;5113;41.822;23.564;2022-08-11T09:13:29;-11702.31;;;27.70;44.82
10145;BME280;5113;41.822;23.564;2022-08-11T09:16:37;-11686.47;;;27.13;46.63
10145;BME280;5113;41.822;23.564;2022-08-11T09:19:45;-11677.28;;;26.80;46.09
10145;BME280;5113;41.822;23.564;2022-08-11T09:23:04;-11694.38;;;27.41;45.73
10145;BME280;5113;41.822;23.564;2022-08-11T09:26:51;-11713.75;;;28.11;43.92
10145;BME280;5113;41.822;23.564;2022-08-11T09:30:10;-11679.97;;;26.89;46.28
10145;BME280;5113;41.822;23.564;2022-08-11T09:33:16;-11693.53;;;27.38;46.86
10145;BME280;5113;41.822;23.564;2022-08-11T09:36:23;-11695.38;;;27.45;46.57
10145;BME280;5113;41.822;23.564;2022-08-11T09:39:49;-11671.94;;;26.60;46.67
10145;BME280;5113;41.822;23.564;2022-08-11T09:43:15;-11684.50;;;27.06;46.14
10145;BME280;5113;41.822;23.564;2022-08-11T09:46:40;-11697.22;;;27.51;45.14
10145;BME280;5113;41.822;23.564;2022-08-11T09:49:47;-11706.97;;;27.86;44.06
10145;BME280;5113;41.822;23.564;2022-08-11T09:52:55;-11704.97;;;27.79;45.42
10145;BME280;5113;41.822;23.564;2022-08-11T09:56:24;-11682.53;;;26.99;43.21
10145;BME280;5113;41.822;23.564;2022-08-11T09:59:51;-11695.09;;;27.44;41.73
10145;BME280;5113;41.822;23.564;2022-08-11T10:03:22;-11693.69;;;27.39;42.24
10145;BME280;5113;41.822;23.564;2022-08-11T10:06:30;-11705.13;;;27.80;39.96
10145;BME280;5113;41.822;23.564;2022-08-11T10:10:00;-11693.25;;;27.37;41.18
10145;BME280;5113;41.822;23.564;2022-08-11T10:13:15;-11701.88;;;27.68;40.70
10145;BME280;5113;41.822;23.564;2022-08-11T10:16:43;-11702.59;;;27.71;40.31
10145;BME280;5113;41.822;23.564;2022-08-11T10:19:50;-11697.91;;;27.54;40.15
10145;BME280;5113;41.822;23.564;2022-08-11T10:23:11;-11692.53;;;27.35;40.96
10145;BME280;5113;41.822;23.564;2022-08-11T10:26:36;-11681.81;;;26.96;40.83
10145;BME280;5113;41.822;23.564;2022-08-11T10:30:06;-11679.41;;;26.87;40.79
10145;BME280;5113;41.822;23.564;2022-08-11T10:33:32;-11715.28;;;28.16;41.63
10145;BME280;5113;41.822;23.564;2022-08-11T10:37:03;-11715.56;;;28.17;39.12
10145;BME280;5113;41.822;23.564;2022-08-11T10:40:20;-11715.44;;;28.17;41.72
10145;BME280;5113;41.822;23.564;2022-08-11T10:43:27;-11675.47;;;26.73;43.29
10145;BME280;5113;41.822;23.564;2022-08-11T10:46:54;-11671.50;;;26.59;44.67
10145;BME280;5113;41.822;23.564;2022-08-11T10:50:18;-11671.22;;;26.58;44.62
10145;BME280;5113;41.822;23.564;2022-08-11T10:53:44;-11660.78;;;26.20;45.23
10145;BME280;5113;41.822;23.564;2022-08-11T10:57:08;-11672.78;;;26.63;46.86
10145;BME280;5113;41.822;23.564;2022-08-11T11:00:33;-11680.53;;;26.91;44.96
10145;BME280;5113;41.822;23.564;2022-08-11T11:03:41;-11681.25;;;26.94;46.24
10145;BME280;5113;41.822;23.564;2022-08-11T11:06:54;-11672.50;;;26.62;45.81
10145;BME280;5113;41.822;23.564;2022-08-11T11:10:05;-11695.50;;;27.45;43.45
10145;BME280;5113;41.822;23.564;2022-08-11T11:13:13;-11717.56;;;28.24;43.43
10145;BME280;5113;41.822;23.564;2022-08-11T11:16:38;-11703.16;;;27.73;41.63
10145;BME280;5113;41.822;23.564;2022-08-11T11:20:22;-11692.13;;;27.33;44.03
10145;BME280;5113;41.822;23.564;2022-08-11T11:23:52;-11711.19;;;28.02;42.09
10145;BME280;5113;41.822;23.564;2022-08-11T11:27:10;-11711.63;;;28.03;38.75
10145;BME280;5113;41.822;23.564;2022-08-11T11:30:28;-11727.44;;;28.60;40.97
10145;BME280;5113;41.822;23.564;2022-08-11T11:33:57;-11733.94;;;28.83;38.83
10145;BME280;5113;41.822;23.564;2022-08-11T11:37:17;-11719.94;;;28.33;37.90
10145;BME280;5113;41.822;23.564;2022-08-11T11:40:24;-11697.63;;;27.53;41.35
10145;BME280;5113;41.822;23.564;2022-08-11T11:43:36;-11669.97;;;26.53;43.51
10145;BME280;5113;41.822;23.564;2022-08-11T11:46:44;-11658.50;;;26.12;45.29
10145;BME280;5113;41.822;23.564;2022-08-11T11:49:51;-11659.34;;;26.15;45.55
10145;BME280;5113;41.822;23.564;2022-08-11T11:53:04;-11649.06;;;25.78;48.32
10145;BME280;5113;41.822;23.564;2022-08-11T11:56:13;-11630.84;;;25.13;49.37
10145;BME280;5113;41.822;23.564;2022-08-11T11:59:20;-11635.22;;;25.28;48.66
10145;BME280;5113;41.822;23.564;2022-08-11T12:02:44;-11625.88;;;24.95;48.79
10145;BME280;5113;41.822;23.564;2022-08-11T12:05:51;-11608.94;;;24.34;48.72
10145;BME280;5113;41.822;23.564;2022-08-11T12:09:00;-11616.00;;;24.59;49.56
10145;BME280;5113;41.822;23.564;2022-08-11T12:12:06;-11621.81;;;24.80;49.91
10145;BME280;5113;41.822;23.564;2022-08-11T12:15:31;-11604.72;;;24.19;54.53
10145;BME280;5113;41.822;23.564;2022-08-11T12:18:59;-11587.06;;;23.55;57.41
10145;BME280;5113;41.822;23.564;2022-08-11T12:22:06;-11592.28;;;23.74;60.89
10145;BME280;5113;41.822;23.564;2022-08-11T12:25:32;-11571.56;;;22.99;64.66
10145;BME280;5113;41.822;23.564;2022-08-11T12:29:18;-11588.78;;;23.61;61.67
10145;BME280;5113;41.822;23.564;2022-08-11T12:32:28;-11583.53;;;23.43;60.68
10145;BME280;5113;41.822;23.564;2022-08-11T12:35:36;-11579.16;;;23.27;61.22
10145;BME280;5113;41.822;23.564;2022-08-11T12:39:05;-11540.94;;;21.89;67.36
10145;BME280;5113;41.822;23.564;2022-08-11T12:42:30;-11512.28;;;20.86;72.59
10145;BME280;5113;41.822;23.564;2022-08-11T12:46:03;-11516.78;;;21.02;74.33
10145;BME280;5113;41.822;23.564;2022-08-11T12:49:12;-11486.47;;;19.93;78.42
10145;BME280;5113;41.822;23.564;2022-08-11T12:52:43;-11501.28;;;20.47;75.70
10145;BME280;5113;41.822;23.564;2022-08-11T12:55:52;-11482.94;;;19.81;80.97
10145;BME280;5113;41.822;23.564;2022-08-11T12:59:19;-11485.47;;;19.90;91.61
10145;BME280;5113;41.822;23.564;2022-08-11T13:02:43;-11490.28;;;20.07;93.48
10145;BME280;5113;41.822;23.564;2022-08-11T13:06:10;-11480.97;;;19.73;94.83
10145;BME280;5113;41.822;23.564;2022-08-11T13:09:17;-11470.25;;;19.35;93.16
10145;BME280;5113;41.822;23.564;2022-08-11T13:12:26;-11483.94;;;19.84;93.95
10145;BME280;5113;41.822;23.564;2022-08-11T13:15:52;-11469.97;;;19.34;98.68
10145;BME280;5113;41.822;23.564;2022-08-11T13:18:59;-11474.34;;;19.50;100.00
10145;BME280;5113;41.822;23.564;2022-08-11T13:22:06;-11475.63;;;19.54;100.00
10145;BME280;5113;41.822;23.564;2022-08-11T13:25:14;-11459.25;;;18.95;100.00
10145;BME280;5113;41.822;23.564;2022-08-11T13:28:21;-11464.03;;;19.12;100.00
10145;BME280;5113;41.822;23.564;2022-08-11T13:31:29;-11470.94;;;19.37;100.00
10145;BME280;5113;41.822;23.564;2022-08-11T13:34:37;-11472.22;;;19.42;100.00
10145;BME280;5113;41.822;23.564;2022-08-11T13:37:46;-11479.00;;;19.66;100.00
10145;BME280;5113;41.822;23.564;2022-08-11T13:41:14;-11468.28;;;19.28;100.00
10145;BME280;5113;41.822;23.564;2022-08-11T13:44:41;-11448.25;;;18.56;100.00
10145;BME280;5113;41.822;23.564;2022-08-11T13:47:49;-11455.88;;;18.83;100.00
10145;BME280;5113;41.822;23.564;2022-08-11T13:50:57;-11480.41;;;19.71;100.00
10145;BME280;5113;41.822;23.564;2022-08-11T13:54:22;-11462.06;;;19.05;100.00
10145;BME280;5113;41.822;23.564;2022-08-11T13:57:30;-11463.19;;;19.09;100.00
10145;BME280;5113;41.822;23.564;2022-08-11T14:00:58;-11472.66;;;19.43;100.00
10145;BME280;5113;41.822;23.564;2022-08-11T14:04:29;-11475.75;;;19.55;100.00
10145;BME280;5113;41.822;23.564;2022-08-11T14:07:38;-11514.81;;;20.95;100.00
10145;BME280;5113;41.822;23.564;2022-08-11T14:10:48;-11541.06;;;21.90;99.24
10145;BME280;5113;41.822;23.564;2022-08-11T14:14:35;-11549.69;;;22.21;98.71
10145;BME280;5113;41.822;23.564;2022-08-11T14:17:42;-11560.41;;;22.59;91.14
10145;BME280;5113;41.822;23.564;2022-08-11T14:20:57;-11564.63;;;22.74;89.32
10145;BME280;5113;41.822;23.564;2022-08-11T14:24:22;-11547.00;;;22.11;95.39
10145;BME280;5113;41.822;23.564;2022-08-11T14:27:29;-11537.97;;;21.79;94.73
10145;BME280;5113;41.822;23.564;2022-08-11T14:30:55;-11552.22;;;22.30;91.17
10145;BME280;5113;41.822;23.564;2022-08-11T14:34:06;-11568.44;;;22.88;91.17
10145;BME280;5113;41.822;23.564;2022-08-11T14:37:20;-11584.25;;;23.45;84.01
10145;BME280;5113;41.822;23.564;2022-08-11T14:40:27;-11579.03;;;23.26;81.87
10145;BME280;5113;41.822;23.564;2022-08-11T14:43:56;-11582.69;;;23.39;79.58
10145;BME280;5113;41.822;23.564;2022-08-11T14:47:21;-11616.00;;;24.59;71.40
10145;BME280;5113;41.822;23.564;2022-08-11T14:50:31;-11588.22;;;23.59;78.18
10145;BME280;5113;41.822;23.564;2022-08-11T14:53:39;-11593.28;;;23.78;76.52
10145;BME280;5113;41.822;23.564;2022-08-11T14:57:02;-11606.84;;;24.26;74.89
10145;BME280;5113;41.822;23.564;2022-08-11T15:00:10;-11598.66;;;23.97;74.06
10145;BME280;5113;41.822;23.564;2022-08-11T15:03:20;-11601.75;;;24.08;73.58
10145;BME280;5113;41.822;23.564;2022-08-11T15:06:32;-11615.03;;;24.56;70.66
10145;BME280;5113;41.822;23.564;2022-08-11T15:09:41;-11597.09;;;23.91;74.72
10145;BME280;5113;41.822;23.564;2022-08-11T15:13:09;-11587.63;;;23.57;78.17
10145;BME280;5113;41.822;23.564;2022-08-11T15:16:15;-11559.81;;;22.57;84.72
10145;BME280;5113;41.822;23.564;2022-08-11T15:19:48;-11545.00;;;22.04;89.47
10145;BME280;5113;41.822;23.564;2022-08-11T15:23:09;-11555.31;;;22.41;81.64
10145;BME280;5113;41.822;23.564;2022-08-11T15:26:37;-11536.69;;;21.74;95.43
10145;BME280;5113;41.822;23.564;2022-08-11T15:30:04;-11536.69;;;21.74;87.63
10145;BME280;5113;41.822;23.564;2022-08-11T15:33:38;-11530.75;;;21.53;78.79
10145;BME280;5113;41.822;23.564;2022-08-11T15:37:07;-11536.84;;;21.74;73.81
10145;BME280;5113;41.822;23.564;2022-08-11T15:40:38;-11536.12;;;21.72;81.07
10145;BME280;5113;41.822;23.564;2022-08-11T15:44:09;-11539.09;;;21.83;83.97
10145;BME280;5113;41.822;23.564;2022-08-11T15:47:58;-11553.06;;;22.33;83.84
10145;BME280;5113;41.822;23.564;2022-08-11T15:51:11;-11552.34;;;22.30;88.39
10145;BME280;5113;41.822;23.564;2022-08-11T15:54:22;-11553.63;;;22.35;84.34
10145;BME280;5113;41.822;23.564;2022-08-11T15:57:30;-11555.19;;;22.40;79.84
10145;BME280;5113;41.822;23.564;2022-08-11T16:00:56;-11552.63;;;22.31;80.19
10145;BME280;5113;41.822;23.564;2022-08-11T16:04:24;-11547.97;;;22.15;85.26
10145;BME280;5113;41.822;23.564;2022-08-11T16:07:32;-11547.69;;;22.14;80.42
10145;BME280;5113;41.822;23.564;2022-08-11T16:10:45;-11546.28;;;22.08;83.51
10145;BME280;5113;41.822;23.564;2022-08-11T16:13:55;-11549.81;;;22.21;83.11
10145;BME280;5113;41.822;23.564;2022-08-11T16:17:23;-11553.06;;;22.33;80.84
10145;BME280;5113;41.822;23.564;2022-08-11T16:20:31;-11546.16;;;22.08;84.07
10145;BME280;5113;41.822;23.564;2022-08-11T16:23:40;-11541.78;;;21.92;87.79
10145;BME280;5113;41.822;23.564;2022-08-11T16:26:49;-11540.78;;;21.89;88.66
10145;BME280;5113;41.822;23.564;2022-08-11T16:30:16;-11537.53;;;21.77;88.58
10145;BME280;5113;41.822;23.564;2022-08-11T16:33:24;-11540.22;;;21.87;88.73
10145;BME280;5113;41.822;23.564;2022-08-11T16:36:51;-11538.25;;;21.80;88.88
10145;BME280;5113;41.822;23.564;2022-08-11T16:40:16;-11533.88;;;21.64;92.46
10145;BME280;5113;41.822;23.564;2022-08-11T16:43:25;-11529.22;;;21.47;92.67
10145;BME280;5113;41.822;23.564;2022-08-11T16:47:05;-11528.94;;;21.46;92.52
10145;BME280;5113;41.822;23.564;2022-08-11T16:50:14;-11528.22;;;21.43;92.57
10145;BME280;5113;41.822;23.564;2022-08-11T16:53:20;-11526.41;;;21.37;94.04
10145;BME280;5113;41.822;23.564;2022-08-11T16:56:49;-11528.38;;;21.44;94.86
10145;BME280;5113;41.822;23.564;2022-08-11T16:59:57;-11524.41;;;21.30;96.75
10145;BME280;5113;41.822;23.564;2022-08-11T17:03:06;-11525.25;;;21.33;98.29
10145;BME280;5113;41.822;23.564;2022-08-11T17:06:33;-11521.88;;;21.21;99.59
10145;BME280;5113;41.822;23.564;2022-08-11T17:09:59;-11523.28;;;21.26;100.00
10145;BME280;5113;41.822;23.564;2022-08-11T17:13:46;-11515.38;;;20.97;100.00
10145;BME280;5113;41.822;23.564;2022-08-11T17:16:54;-11517.50;;;21.05;100.00
10145;BME280;5113;41.822;23.564;2022-08-11T17:20:04;-11516.78;;;21.02;100.00
10145;BME280;5113;41.822;23.564;2022-08-11T17:23:36;-11513.69;;;20.91;98.65
10145;BME280;5113;41.822;23.564;2022-08-11T17:26:55;-11513.13;;;20.89;97.73
10145;BME280;5113;41.822;23.564;2022-08-11T17:30:04;-11506.62;;;20.66;96.27
10145;BME280;5113;41.822;23.564;2022-08-11T17:33:11;-11506.94;;;20.67;96.18
10145;BME280;5113;41.822;23.564;2022-08-11T17:36:36;-11504.66;;;20.59;96.54
10145;BME280;5113;41.822;23.564;2022-08-11T17:39:52;-11501.84;;;20.49;97.82
10145;BME280;5113;41.822;23.564;2022-08-11T17:43:02;-11494.78;;;20.23;98.23
10145;BME280;5113;41.822;23.564;2022-08-11T17:46:28;-11491.97;;;20.13;99.16
10145;BME280;5113;41.822;23.564;2022-08-11T17:49:52;-11490.28;;;20.07;99.07
10145;BME280;5113;41.822;23.564;2022-08-11T17:53:13;-11488.59;;;20.01;98.75
10145;BME280;5113;41.822;23.564;2022-08-11T17:56:40;-11488.03;;;19.99;98.52
10145;BME280;5113;41.822;23.564;2022-08-11T18:00:05;-11482.53;;;19.79;99.87